Time;durP1;ratioP1;P1;durP2;ratioP2;P2;SDS_P1;SDS_P2;PMS_P1;PMS_P2;Temp;Humidity;BMP_temperature;BMP_pressure;BME280_temperature;BME280_humidity;BME280_pressure;Samples;Min_cycle;Max_cycle;Signal;HPM_P1;HPM_P2
2022/09/18 00:01:12;;;;;;;2.83;1.62;;;;;;;25.45;47.80;99024.14;1744658;80;21372;-73
2022/09/18 00:03:39;;;;;;;2.62;2.00;;;;;;;25.45;47.80;99025.53;1744167;80;21524;-72
2022/09/18 00:06:11;;;;;;;3.37;1.85;;;;;;;25.45;47.83;99040.84;1744444;80;21102;-73
2022/09/18 00:08:38;;;;;;;2.92;1.85;;;;;;;25.45;47.84;99036.67;1743964;81;21067;-73
2022/09/18 00:11:06;;;;;;;2.40;1.60;;;;;;;25.45;47.85;99026.92;1744127;80;20987;-73
2022/09/18 00:13:36;;;;;;;2.90;1.90;;;;;;;25.45;47.85;99028.32;1743921;81;21110;-73
2022/09/18 00:16:03;;;;;;;3.05;1.60;;;;;;;25.45;47.86;99033.89;1744757;82;21032;-73
2022/09/18 00:18:29;;;;;;;2.33;1.70;;;;;;;25.44;47.85;99030.30;1744457;81;21017;-73
2022/09/18 00:21:09;;;;;;;2.62;1.87;;;;;;;25.45;47.89;99036.08;1720869;82;21012;-73
2022/09/18 00:23:42;;;;;;;3.25;1.98;;;;;;;25.43;47.88;99030.09;1744642;81;21519;-74
2022/09/18 00:26:09;;;;;;;2.67;1.75;;;;;;;25.44;47.88;99023.94;1752033;80;21588;-74
2022/09/18 00:28:35;;;;;;;2.67;1.60;;;;;;;25.44;47.88;99030.89;1756419;80;21031;-74
2022/09/18 00:31:16;;;;;;;3.90;1.70;;;;;;;25.43;47.90;99028.70;1744494;79;21095;-74
2022/09/18 00:33:43;;;;;;;2.87;1.77;;;;;;;25.43;47.90;99034.27;1749091;80;21691;-74
2022/09/18 00:36:12;;;;;;;3.12;1.90;;;;;;;25.43;47.89;99023.73;1750263;81;20977;-74
2022/09/18 00:38:38;;;;;;;4.35;2.10;;;;;;;25.43;47.92;99024.52;1750046;80;21150;-74
2022/09/18 00:41:08;;;;;;;3.25;1.50;;;;;;;25.43;47.93;99027.91;1749725;80;21493;-74
2022/09/18 00:43:35;;;;;;;2.98;1.85;;;;;;;25.43;47.92;99028.70;1750177;80;21036;-74
2022/09/18 00:46:34;;;;;;;2.70;2.10;;;;;;;25.43;47.92;99032.08;1749835;81;21043;-74
2022/09/18 00:49:17;;;;;;;2.47;1.72;;;;;;;25.43;47.94;99027.31;1749703;80;20992;-75
2022/09/18 00:51:44;;;;;;;2.75;1.90;;;;;;;25.42;47.92;99022.92;1750073;80;21790;-74
2022/09/18 00:54:28;;;;;;;2.98;1.85;;;;;;;25.42;47.94;99032.67;1749520;80;20968;-74
2022/09/18 00:56:58;;;;;;;3.42;1.85;;;;;;;25.42;47.95;99027.69;1749751;80;21001;-76
2022/09/18 00:59:30;;;;;;;2.92;1.90;;;;;;;25.41;47.95;99038.65;1749678;81;21008;-76
2022/09/18 01:01:56;;;;;;;2.45;1.57;;;;;;;25.41;47.98;99035.87;1749972;80;21005;-76
2022/09/18 01:04:23;;;;;;;4.15;1.98;;;;;;;25.41;47.98;99047.00;1746548;81;21906;-77
2022/09/18 01:07:06;;;;;;;2.52;1.57;;;;;;;25.41;47.99;99049.20;1739578;81;21091;-77
2022/09/18 01:10:11;;;;;;;2.98;2.00;;;;;;;25.41;48.01;99056.16;1739726;82;21496;-76
2022/09/18 01:12:59;;;;;;;3.75;1.70;;;;;;;25.41;48.02;99063.11;1739575;81;21052;-75
2022/09/18 01:15:56;;;;;;;3.08;2.10;;;;;;;25.41;48.00;99065.91;1739844;80;21669;-76
2022/09/18 01:18:52;;;;;;;3.27;1.77;;;;;;;25.39;48.01;99059.91;1702826;82;21472;-76
2022/09/18 01:21:47;;;;;;;3.15;1.98;;;;;;;25.39;48.01;99069.66;1739745;82;21025;-76
2022/09/18 01:24:39;;;;;;;2.20;1.80;;;;;;;25.38;48.03;99072.82;1739683;81;21001;-75
2022/09/18 01:27:10;;;;;;;2.60;1.90;;;;;;;25.37;48.03;99063.70;1740037;80;21131;-75
2022/09/18 01:29:50;;;;;;;3.58;1.70;;;;;;;25.38;48.07;99058.31;1739801;81;21020;-76
2022/09/18 01:32:38;;;;;;;2.98;1.47;;;;;;;25.37;48.10;99050.37;1733317;80;21598;-76
2022/09/18 01:35:31;;;;;;;2.87;1.75;;;;;;;25.36;48.13;99064.88;1739846;82;21071;-76
2022/09/18 01:38:08;;;;;;;3.95;1.92;;;;;;;25.37;48.13;99083.19;1716919;82;21625;-76
2022/09/18 01:40:39;;;;;;;3.05;2.17;;;;;;;25.36;48.15;99079.39;1717017;82;21009;-76
2022/09/18 01:43:08;;;;;;;2.72;1.55;;;;;;;25.36;48.16;99087.73;1739988;80;21032;-76
2022/09/18 01:45:39;;;;;;;2.70;1.70;;;;;;;25.36;48.18;99098.28;1739929;82;21309;-76
2022/09/18 01:48:07;;;;;;;3.15;1.82;;;;;;;25.36;48.21;99091.92;1738812;82;21522;-76
2022/09/18 01:50:37;;;;;;;2.77;1.52;;;;;;;25.37;48.24;99099.09;1739937;81;21075;-77
2022/09/18 01:53:17;;;;;;;3.92;1.72;;;;;;;25.36;48.25;99107.23;1740069;80;21482;-77
2022/09/18 01:55:48;;;;;;;2.45;1.50;;;;;;;25.36;48.26;99116.97;1739882;81;21024;-76
2022/09/18 01:58:19;;;;;;;3.27;1.60;;;;;;;25.36;48.25;99123.93;1738554;81;21174;-75
2022/09/18 02:00:50;;;;;;;2.65;1.67;;;;;;;25.36;48.25;99137.85;1717908;82;21036;-76
2022/09/18 02:03:28;;;;;;;2.37;1.62;;;;;;;25.37;48.27;99143.62;1739918;80;21047;-76
2022/09/18 02:05:59;;;;;;;3.25;1.70;;;;;;;25.36;48.29;99148.39;1739230;80;21048;-76
2022/09/18 02:08:39;;;;;;;2.12;1.35;;;;;;;25.36;48.30;99148.98;1739922;81;21083;-75
2022/09/18 02:11:09;;;;;;;3.33;1.92;;;;;;;25.37;48.29;99169.48;1739588;80;21039;-76
2022/09/18 02:13:47;;;;;;;2.25;1.42;;;;;;;25.35;48.30;99163.50;1739779;81;21072;-76
2022/09/18 02:16:19;;;;;;;3.05;1.60;;;;;;;25.35;48.31;99160.71;1734874;80;21563;-76
2022/09/18 02:18:48;;;;;;;2.15;1.50;;;;;;;25.35;48.31;99185.77;1757087;81;21104;-76
2022/09/18 02:21:20;;;;;;;2.45;1.52;;;;;;;25.35;48.33;99175.22;1764193;80;21109;-76
2022/09/18 02:23:46;;;;;;;4.17;1.80;;;;;;;25.35;48.33;99176.02;1762460;81;21167;-76
2022/09/18 02:26:12;;;;;;;2.55;1.82;;;;;;;25.34;48.36;99177.20;1762540;81;20942;-76
2022/09/18 02:28:39;;;;;;;2.70;1.60;;;;;;;25.35;48.37;99182.98;1736394;82;21126;-76
2022/09/18 02:31:05;;;;;;;2.35;1.57;;;;;;;25.34;48.38;99199.48;1738581;81;21429;-76
2022/09/18 02:33:41;;;;;;;2.83;1.62;;;;;;;25.34;48.38;99196.69;1764704;80;21050;-76
2022/09/18 02:36:25;;;;;;;4.25;1.32;;;;;;;25.33;48.38;99211.79;1774707;80;21441;-76
2022/09/18 02:39:36;;;;;;;2.02;1.40;;;;;;;25.34;48.38;99213.98;1774844;80;21054;-75
2022/09/18 02:42:27;;;;;;;3.70;1.55;;;;;;;25.34;48.34;99208.42;1774732;80;21050;-77
2022/09/18 02:45:26;;;;;;;3.15;1.52;;;;;;;25.32;48.31;99215.78;1758261;80;21453;-76
2022/09/18 02:48:01;;;;;;;4.72;1.67;;;;;;;25.32;48.28;99212.20;1716179;82;21075;-75
2022/09/18 02:50:56;;;;;;;4.17;1.40;;;;;;;25.31;48.26;99211.39;1708847;82;21871;-76
2022/09/18 02:53:29;;;;;;;2.15;1.60;;;;;;;25.31;48.26;99218.36;1719077;82;21603;-76
2022/09/18 02:56:06;;;;;;;2.55;1.45;;;;;;;25.29;48.25;99215.77;1723676;82;21053;-76
2022/09/18 02:58:58;;;;;;;1.87;1.30;;;;;;;25.29;48.23;99217.16;1723028;82;21041;-75
2022/09/18 03:01:24;;;;;;;3.98;1.60;;;;;;;25.28;48.19;99220.53;1723276;83;21551;-76
2022/09/18 03:03:50;;;;;;;2.92;1.80;;;;;;;25.27;48.17;99228.67;1665580;82;20986;-76
2022/09/18 03:06:17;;;;;;;2.00;1.30;;;;;;;25.27;48.16;99220.31;1734038;82;21046;-76
2022/09/18 03:08:43;;;;;;;3.30;1.37;;;;;;;25.27;48.15;99228.67;1713284;82;21496;-76
2022/09/18 03:11:09;;;;;;;3.67;1.40;;;;;;;25.28;48.14;99223.91;1733971;82;21057;-76
2022/09/18 03:13:36;;;;;;;3.45;1.60;;;;;;;25.28;48.08;99233.05;1734242;82;21053;-76
2022/09/18 03:16:02;;;;;;;2.42;1.40;;;;;;;25.25;48.05;99236.59;1734300;81;21557;-76
2022/09/18 03:18:28;;;;;;;2.17;1.42;;;;;;;25.28;48.04;99241.41;1734046;82;21045;-76
2022/09/18 03:20:54;;;;;;;2.92;1.05;;;;;;;25.28;47.98;99246.17;1734259;81;21045;-76
2022/09/18 03:23:22;;;;;;;2.80;1.27;;;;;;;25.28;47.94;99246.17;1734295;82;21477;-76
2022/09/18 03:25:49;;;;;;;3.67;1.30;;;;;;;25.27;47.88;99238.41;1734083;81;21036;-76
2022/09/18 03:28:16;;;;;;;1.90;1.22;;;;;;;25.28;47.83;99246.17;1734140;81;21238;-76
2022/09/18 03:30:44;;;;;;;4.03;1.22;;;;;;;25.29;47.79;99264.48;1743979;79;21104;-76
2022/09/18 03:33:10;;;;;;;3.12;1.12;;;;;;;25.27;47.75;99285.73;1783224;80;21029;-76
2022/09/18 03:35:37;;;;;;;3.85;1.40;;;;;;;25.27;47.69;99293.28;1771662;80;21088;-76
2022/09/18 03:38:03;;;;;;;2.70;1.52;;;;;;;25.26;47.68;99291.09;1782460;80;21018;-76
2022/09/18 03:40:30;;;;;;;2.02;1.25;;;;;;;25.27;47.62;99295.48;1771571;80;21860;-76
2022/09/18 03:42:56;;;;;;;1.92;1.22;;;;;;;25.27;47.58;99314.16;1782407;79;21012;-76
2022/09/18 03:45:22;;;;;;;2.52;1.27;;;;;;;25.26;47.52;99324.48;1782424;80;21459;-76
2022/09/18 03:47:49;;;;;;;2.30;1.10;;;;;;;25.27;47.50;99312.77;1797680;79;21080;-76
2022/09/18 03:50:15;;;;;;;5.70;1.30;;;;;;;25.26;47.43;99309.77;1782412;80;21670;-77
2022/09/18 03:52:42;;;;;;;3.58;1.00;;;;;;;25.25;47.37;99320.72;1782335;80;21383;-76
2022/09/18 03:55:09;;;;;;;2.52;1.37;;;;;;;25.25;47.31;99328.45;1782017;79;20996;-76
2022/09/18 03:57:35;;;;;;;1.87;1.12;;;;;;;25.25;47.25;99343.76;1782369;79;21576;-76
2022/09/18 04:00:02;;;;;;;2.55;0.90;;;;;;;25.25;47.18;99357.67;1771736;80;21485;-76
2022/09/18 04:02:28;;;;;;;1.42;0.88;;;;;;;25.24;47.11;99363.06;1782139;80;21464;-76
2022/09/18 04:04:55;;;;;;;2.58;1.15;;;;;;;25.24;47.06;99371.41;1782449;79;21218;-76
2022/09/18 04:07:22;;;;;;;1.80;1.02;;;;;;;25.24;46.99;99370.61;1806631;79;21472;-76
2022/09/18 04:09:48;;;;;;;2.30;1.12;;;;;;;25.24;46.94;99376.98;1814304;77;20999;-76
2022/09/18 04:12:14;;;;;;;2.72;1.05;;;;;;;25.22;46.91;99394.64;1814430;79;20999;-76
2022/09/18 04:14:41;;;;;;;3.42;1.00;;;;;;;25.22;46.85;99409.95;1814402;78;20982;-76
2022/09/18 04:17:07;;;;;;;1.75;0.98;;;;;;;25.23;46.75;99419.91;1813787;79;21835;-76
2022/09/18 04:19:33;;;;;;;2.95;0.85;;;;;;;25.22;46.75;99423.86;1813683;79;21014;-76
2022/09/18 04:21:59;;;;;;;2.70;1.00;;;;;;;25.22;46.69;99443.34;1814088;79;21646;-76
2022/09/18 04:24:32;;;;;;;1.40;0.90;;;;;;;25.21;46.62;99452.07;1792641;79;20991;-76
2022/09/18 04:26:58;;;;;;;1.22;0.80;;;;;;;25.21;46.54;99469.58;1791902;79;21679;-76
2022/09/18 04:29:24;;;;;;;2.00;1.10;;;;;;;25.21;46.47;99461.23;1814418;79;21213;-76
2022/09/18 04:31:51;;;;;;;1.35;0.93;;;;;;;25.22;46.42;99464.81;1814032;79;20964;-76
2022/09/18 04:34:17;;;;;;;1.20;0.80;;;;;;;25.21;46.37;99483.49;1814326;79;21034;-76
2022/09/18 04:36:43;;;;;;;1.55;0.90;;;;;;;25.20;46.29;99491.66;1805468;78;21062;-76
2022/09/18 04:39:09;;;;;;;3.02;0.95;;;;;;;25.20;46.24;99504.77;1803533;78;21551;-76
2022/09/18 04:41:35;;;;;;;3.83;1.17;;;;;;;25.20;46.25;99513.92;1803827;78;22060;-76
2022/09/18 04:44:02;;;;;;;1.67;1.20;;;;;;;25.19;46.21;99508.73;1774526;79;21075;-77
2022/09/18 04:46:29;;;;;;;2.22;1.02;;;;;;;25.20;46.16;99515.91;1759831;80;20913;-77
2022/09/18 04:48:55;;;;;;;2.02;0.93;;;;;;;25.19;46.08;99513.70;1760120;80;21028;-76
2022/09/18 04:51:27;;;;;;;3.27;0.80;;;;;;;25.18;45.99;99499.57;1759966;80;21146;-76
2022/09/18 04:53:53;;;;;;;3.50;1.00;;;;;;;25.19;45.93;99511.51;1763773;81;21089;-76
2022/09/18 04:56:19;;;;;;;1.90;1.42;;;;;;;25.19;45.91;99510.92;1764092;81;21076;-76
2022/09/18 04:58:46;;;;;;;2.12;0.80;;;;;;;25.18;45.85;99526.02;1759999;79;21001;-76
2022/09/18 05:01:12;;;;;;;1.55;0.80;;;;;;;25.18;45.77;99530.77;1738409;81;21400;-76
2022/09/18 05:03:38;;;;;;;2.22;0.90;;;;;;;25.18;45.73;99556.63;1738495;80;21040;-77
2022/09/18 05:06:05;;;;;;;1.77;0.72;;;;;;;25.18;45.66;99545.50;1760117;80;21543;-77
2022/09/18 05:08:33;;;;;;;1.37;0.90;;;;;;;25.18;45.56;99559.41;1759781;80;21024;-77
2022/09/18 05:11:01;;;;;;;2.20;0.90;;;;;;;25.18;45.51;99555.83;1763825;79;21012;-76
2022/09/18 05:13:27;;;;;;;1.62;0.80;;;;;;;25.17;45.42;99554.22;1760026;80;20960;-76
2022/09/18 05:15:54;;;;;;;2.30;0.80;;;;;;;25.16;45.34;99556.22;1759901;79;21035;-76
2022/09/18 05:18:21;;;;;;;3.42;0.78;;;;;;;25.17;45.29;99557.00;1760294;79;22100;-76
2022/09/18 05:20:47;;;;;;;2.25;0.82;;;;;;;25.16;45.25;99556.81;1768244;80;21094;-77
2022/09/18 05:23:13;;;;;;;2.27;0.75;;;;;;;25.16;45.19;99555.42;1712605;80;21071;-76
2022/09/18 05:25:42;;;;;;;3.85;0.93;;;;;;;25.16;45.14;99557.62;1771666;81;21107;-76
2022/09/18 05:28:09;;;;;;;4.35;0.80;;;;;;;25.15;45.06;99557.98;1775657;79;21060;-76
2022/09/18 05:30:36;;;;;;;6.47;0.80;;;;;;;25.15;45.03;99569.92;1771400;80;21802;-76
2022/09/18 05:33:06;;;;;;;1.52;0.80;;;;;;;25.14;44.97;99568.31;1771690;79;21040;-77
2022/09/18 05:35:34;;;;;;;1.42;0.72;;;;;;;25.15;44.86;99594.97;1779166;79;21083;-76
2022/09/18 05:38:00;;;;;;;1.98;0.65;;;;;;;25.15;44.77;99585.23;1781996;80;21012;-76
2022/09/18 05:40:34;;;;;;;1.57;0.70;;;;;;;25.14;44.74;99595.34;1782207;79;21040;-76
2022/09/18 05:43:01;;;;;;;1.22;0.70;;;;;;;25.14;44.70;99593.36;1782285;80;21072;-76
2022/09/18 05:45:28;;;;;;;3.47;0.90;;;;;;;25.14;44.56;99592.55;1797250;79;21166;-76
2022/09/18 05:48:00;;;;;;;3.37;0.75;;;;;;;25.15;44.49;99602.52;1782103;79;21060;-76
2022/09/18 05:50:27;;;;;;;2.83;0.70;;;;;;;25.14;44.42;99613.43;1781394;79;21017;-76
2022/09/18 05:53:06;;;;;;;1.77;0.75;;;;;;;25.14;44.35;99615.62;1782033;80;21032;-76
2022/09/18 05:55:32;;;;;;;1.50;0.60;;;;;;;25.13;44.30;99619.58;1772875;79;21525;-76
2022/09/18 05:58:00;;;;;;;1.02;0.55;;;;;;;25.14;44.21;99628.73;1814133;78;21065;-76
2022/09/18 06:00:27;;;;;;;1.32;0.62;;;;;;;25.12;44.16;99640.85;1814418;78;21426;-76
2022/09/18 06:03:00;;;;;;;1.27;0.60;;;;;;;25.12;44.11;99631.89;1814409;78;21097;-76
2022/09/18 06:05:28;;;;;;;2.00;0.70;;;;;;;25.11;44.01;99642.83;1814192;78;21759;-76
2022/09/18 06:07:56;;;;;;;4.55;0.90;;;;;;;25.11;43.95;99619.17;1814376;79;21152;-76
2022/09/18 06:10:22;;;;;;;0.90;0.62;;;;;;;25.12;43.91;99631.11;1813739;77;21046;-76
2022/09/18 06:12:49;;;;;;;2.83;0.80;;;;;;;25.11;43.87;99632.28;1813892;78;21567;-76
2022/09/18 06:15:16;;;;;;;2.08;0.70;;;;;;;25.11;43.80;99624.73;1814521;79;21046;-76
2022/09/18 06:17:42;;;;;;;1.30;0.80;;;;;;;25.12;43.77;99626.31;1813979;79;21017;-76
2022/09/18 06:20:09;;;;;;;2.00;0.90;;;;;;;25.11;43.69;99613.61;1813827;79;21109;-76
2022/09/18 06:22:35;;;;;;;1.67;0.70;;;;;;;25.12;43.60;99603.28;1814029;79;21037;-76
2022/09/18 06:25:03;;;;;;;2.10;0.57;;;;;;;25.11;43.60;99602.47;1791517;79;21120;-76
2022/09/18 06:27:30;;;;;;;1.32;0.68;;;;;;;25.11;43.53;99603.86;1791152;79;39289;-76
2022/09/18 06:29:57;;;;;;;1.37;0.90;;;;;;;25.11;43.53;99614.19;1814002;78;21512;-76
2022/09/18 06:32:23;;;;;;;2.72;0.68;;;;;;;25.11;43.45;99616.97;1791232;79;22840;-76
2022/09/18 06:34:49;;;;;;;2.77;0.62;;;;;;;25.11;43.40;99631.70;1813244;78;21483;-76
2022/09/18 06:37:16;;;;;;;4.97;0.80;;;;;;;25.10;43.33;99632.87;1811994;78;21029;-76
2022/09/18 06:39:42;;;;;;;1.30;0.60;;;;;;;25.12;43.27;99643.63;1791639;79;21065;-76
2022/09/18 06:42:08;;;;;;;1.70;0.65;;;;;;;25.11;43.21;99627.52;1811890;78;21038;-76
2022/09/18 06:44:35;;;;;;;1.12;0.62;;;;;;;25.11;43.15;99639.23;1811139;78;22128;-76
2022/09/18 06:47:01;;;;;;;1.20;0.70;;;;;;;25.11;43.12;99617.78;1803162;79;21062;-76
2022/09/18 06:49:28;;;;;;;0.88;0.60;;;;;;;25.11;43.13;99624.73;1780860;79;21047;-76
2022/09/18 06:51:54;;;;;;;1.32;0.65;;;;;;;25.10;43.08;99628.69;1803339;79;21058;-76
2022/09/18 06:54:20;;;;;;;1.35;0.72;;;;;;;25.11;43.04;99628.91;1803526;79;21453;-76
2022/09/18 06:56:48;;;;;;;3.92;0.72;;;;;;;25.11;42.99;99637.27;1803325;79;21838;-76
2022/09/18 06:59:14;;;;;;;2.87;0.68;;;;;;;25.10;42.93;99639.83;1803441;79;21058;-75
2022/09/18 07:01:40;;;;;;;3.08;0.80;;;;;;;25.12;42.86;99633.89;1803214;79;20983;-75
2022/09/18 07:04:07;;;;;;;1.00;0.70;;;;;;;25.11;42.82;99652.57;1802728;79;21442;-75
2022/09/18 07:06:33;;;;;;;1.65;0.60;;;;;;;25.11;42.77;99626.72;1803277;78;21341;-75
2022/09/18 07:08:59;;;;;;;4.35;0.72;;;;;;;25.11;42.74;99656.75;1801485;78;21069;-75
2022/09/18 07:11:26;;;;;;;1.95;0.62;;;;;;;25.11;42.69;99667.07;1774955;79;21069;-75
2022/09/18 07:13:53;;;;;;;4.22;0.75;;;;;;;25.11;42.64;99648.39;1776980;79;21445;-75
2022/09/18 07:16:19;;;;;;;6.33;0.62;;;;;;;25.11;42.56;99649.78;1776958;79;21045;-75
2022/09/18 07:18:47;;;;;;;3.15;0.70;;;;;;;25.11;42.56;99637.84;1776756;79;21048;-75
2022/09/18 07:21:14;;;;;;;8.20;0.80;;;;;;;25.11;42.51;99639.23;1777073;79;21115;-75
2022/09/18 07:23:40;;;;;;;6.03;0.60;;;;;;;25.11;42.48;99655.94;1792037;79;21569;-75
2022/09/18 07:26:06;;;;;;;2.00;0.70;;;;;;;25.11;42.46;99648.39;1776657;79;20981;-75
2022/09/18 07:28:33;;;;;;;2.35;0.70;;;;;;;25.11;42.37;99652.57;1776988;79;20998;-75
2022/09/18 07:31:04;;;;;;;1.82;0.70;;;;;;;25.12;42.33;99663.89;1777272;79;21010;-75
2022/09/18 07:33:31;;;;;;;3.17;0.80;;;;;;;25.12;42.28;99653.38;1776932;79;21959;-76
2022/09/18 07:36:01;;;;;;;6.53;1.02;;;;;;;25.11;42.24;99655.94;1776962;79;20974;-75
2022/09/18 07:38:28;;;;;;;4.28;0.80;;;;;;;25.12;42.18;99645.80;1792468;79;21425;-75
2022/09/18 07:40:55;;;;;;;2.22;0.70;;;;;;;25.12;42.11;99653.38;1777013;79;21527;-75
2022/09/18 07:43:21;;;;;;;6.85;1.17;;;;;;;25.11;42.06;99649.78;1777128;80;21032;-75
2022/09/18 07:45:47;;;;;;;3.67;0.90;;;;;;;25.12;42.00;99662.50;1771385;79;21199;-75
2022/09/18 07:48:15;;;;;;;6.83;1.00;;;;;;;25.11;41.97;99670.66;1803182;78;21058;-75
2022/09/18 07:50:41;;;;;;;4.50;0.98;;;;;;;25.11;41.89;99655.35;1803550;79;20979;-75
2022/09/18 07:53:08;;;;;;;3.55;0.62;;;;;;;25.13;41.84;99666.09;1803666;79;21007;-75
2022/09/18 07:55:35;;;;;;;3.25;0.90;;;;;;;25.12;41.78;99658.33;1803121;79;21041;-75
2022/09/18 07:58:04;;;;;;;2.33;0.47;;;;;;;25.12;41.75;99670.85;1803611;78;21968;-75
2022/09/18 08:00:35;;;;;;;2.15;0.53;;;;;;;25.14;41.72;99671.88;1802934;79;21093;-75
2022/09/18 08:03:10;;;;;;;5.47;0.90;;;;;;;25.13;41.64;99668.28;1780754;79;21030;-74
2022/09/18 08:05:40;;;;;;;4.10;0.70;;;;;;;25.14;41.59;99671.88;1803156;79;21638;-75
2022/09/18 08:08:09;;;;;;;3.90;0.72;;;;;;;25.13;41.52;99673.05;1803165;79;21515;-75
2022/09/18 08:10:35;;;;;;;2.05;0.60;;;;;;;25.13;41.49;99671.66;1781115;79;21116;-75
2022/09/18 08:13:02;;;;;;;2.05;0.72;;;;;;;25.12;41.42;99674.25;1803624;79;21042;-75
2022/09/18 08:15:30;;;;;;;7.87;0.72;;;;;;;25.13;41.37;99693.34;1803333;78;21022;-76
2022/09/18 08:17:56;;;;;;;2.42;0.60;;;;;;;25.13;41.37;99682.79;1803393;79;21026;-75
2022/09/18 08:20:22;;;;;;;3.72;0.78;;;;;;;25.13;41.39;99688.36;1801981;79;21105;-75
2022/09/18 08:22:49;;;;;;;4.78;0.60;;;;;;;25.13;41.30;99687.77;1767445;81;21194;-75
2022/09/18 08:25:16;;;;;;;5.47;0.88;;;;;;;25.13;41.26;99687.77;1767609;81;20970;-75
2022/09/18 08:27:42;;;;;;;1.65;0.50;;;;;;;25.13;41.19;99673.86;1767385;80;21027;-75
2022/09/18 08:30:11;;;;;;;4.65;0.85;;;;;;;25.14;41.12;99695.53;1767152;80;21188;-76
2022/09/18 08:32:37;;;;;;;3.70;0.60;;;;;;;25.14;41.09;99700.52;1746150;81;21101;-75
2022/09/18 08:35:04;;;;;;;3.83;0.68;;;;;;;25.14;41.04;99703.30;1745392;81;21120;-75
2022/09/18 08:37:32;;;;;;;3.12;0.40;;;;;;;25.15;41.02;99702.72;1765456;81;21563;-74
2022/09/18 08:39:58;;;;;;;5.70;0.82;;;;;;;25.15;40.98;99699.94;1767725;81;21002;-75
2022/09/18 08:42:36;;;;;;;1.98;0.53;;;;;;;25.14;40.93;99699.13;1767795;80;20999;-75
2022/09/18 08:45:17;;;;;;;4.40;0.55;;;;;;;25.14;40.87;99692.75;1771120;78;21027;-75
2022/09/18 08:47:49;;;;;;;1.72;0.68;;;;;;;25.14;40.86;99700.52;1771612;80;21155;-75
2022/09/18 08:50:23;;;;;;;3.50;0.60;;;;;;;25.14;40.83;99692.17;1741752;81;21016;-75
2022/09/18 08:52:58;;;;;;;1.50;0.40;;;;;;;25.14;40.77;99697.73;1771965;79;20967;-74
2022/09/18 08:55:29;;;;;;;1.10;0.40;;;;;;;25.14;40.73;99691.36;1710348;82;21482;-75
2022/09/18 08:58:00;;;;;;;3.42;0.78;;;;;;;25.13;40.73;99702.27;1724176;82;21093;-75
2022/09/18 09:00:42;;;;;;;3.40;0.50;;;;;;;25.13;40.72;99684.98;1740584;81;21164;-75
2022/09/18 09:03:52;;;;;;;2.75;0.60;;;;;;;25.14;40.64;99694.14;1762745;80;21460;-75
2022/09/18 09:06:51;;;;;;;3.47;0.60;;;;;;;25.13;40.60;99700.30;1768919;81;21016;-75
2022/09/18 09:09:36;;;;;;;2.98;0.50;;;;;;;25.12;40.65;99696.52;1762569;81;21046;-75
2022/09/18 09:12:23;;;;;;;0.65;0.42;;;;;;;25.12;40.59;99710.44;1762649;81;21556;-75
2022/09/18 09:15:19;;;;;;;3.12;0.72;;;;;;;25.11;40.55;99713.80;1734381;81;21229;-75
2022/09/18 09:18:02;;;;;;;2.08;0.57;;;;;;;25.11;40.53;99711.02;1760575;81;21544;-74
2022/09/18 09:20:54;;;;;;;3.30;0.45;;;;;;;25.11;40.48;99705.45;1762318;81;21096;-76
2022/09/18 09:23:57;;;;;;;2.98;0.53;;;;;;;25.10;40.52;99726.10;1761954;80;21574;-76
2022/09/18 09:26:23;;;;;;;3.75;0.60;;;;;;;25.11;40.47;99723.55;1762553;81;21026;-76
2022/09/18 09:29:11;;;;;;;1.95;0.55;;;;;;;25.10;40.42;99720.53;1742854;81;21783;-76
2022/09/18 09:31:42;;;;;;;1.37;0.57;;;;;;;25.09;40.42;99724.49;1762624;80;20980;-76
2022/09/18 09:34:39;;;;;;;4.03;0.50;;;;;;;25.10;40.41;99735.03;1762476;81;21102;-76
2022/09/18 09:37:17;;;;;;;3.92;0.50;;;;;;;25.10;40.35;99739.21;1774350;80;21097;-76
2022/09/18 09:39:58;;;;;;;2.80;0.53;;;;;;;25.10;40.29;99740.61;1750310;81;21513;-76
2022/09/18 09:42:36;;;;;;;1.57;0.40;;;;;;;25.10;40.23;99736.43;1806945;79;21121;-76
2022/09/18 09:45:17;;;;;;;2.92;0.50;;;;;;;25.09;40.16;99745.36;1813020;78;20984;-76
2022/09/18 09:48:05;;;;;;;;;;;;;;;25.09;40.18;99741.19;1756734;80;21038;-76
2022/09/18 09:50:46;;;;;;;1.77;0.70;;;;;;;25.09;40.12;99749.54;1761278;80;20510;-76
2022/09/18 09:53:12;;;;;;;;;;;;;;;25.08;40.24;99753.48;1786693;78;21026;-76
2022/09/18 09:55:53;;;;;;;2.17;0.47;;;;;;;25.09;40.18;99762.64;1814153;79;21104;-76
2022/09/18 09:58:32;;;;;;;2.92;0.45;;;;;;;25.08;40.27;99761.06;1813896;79;21492;-76
2022/09/18 10:01:10;;;;;;;0.80;0.20;;;;;;;25.08;40.21;99755.50;1813852;78;21587;-75
2022/09/18 10:03:42;;;;;;;1.77;0.40;;;;;;;25.07;40.14;99763.04;1814055;78;21053;-75
2022/09/18 10:06:32;;;;;;;2.35;0.60;;;;;;;25.08;40.09;99777.77;1814087;79;21543;-75
2022/09/18 10:09:04;;;;;;;2.80;0.70;;;;;;;25.09;40.10;99786.30;1795596;77;21253;-75
2022/09/18 10:11:31;;;;;;;3.40;0.50;;;;;;;25.09;40.08;99791.28;1772869;80;20999;-76
2022/09/18 10:14:11;;;;;;;1.57;0.55;;;;;;;25.09;40.04;99786.30;1813964;79;21061;-76
2022/09/18 10:16:49;;;;;;;7.03;0.62;;;;;;;25.10;40.02;99792.09;1791471;79;21058;-76
2022/09/18 10:19:22;;;;;;;1.60;0.55;;;;;;;25.09;39.95;99803.00;1814362;78;21022;-76
2022/09/18 10:21:49;;;;;;;1.37;0.25;;;;;;;25.09;39.87;99794.06;1813727;79;21169;-76
2022/09/18 10:24:46;;;;;;;1.57;0.42;;;;;;;25.10;39.84;99804.62;1813868;79;21195;-76
2022/09/18 10:27:13;;;;;;;;;;;;;;;25.10;39.77;99819.34;1815206;78;21479;-76
2022/09/18 10:29:39;;;;;;;0.82;0.30;;;;;;;25.10;39.70;99806.01;1814179;79;20189;-76
2022/09/18 10:32:06;;;;;;;2.05;0.50;;;;;;;25.09;39.85;99814.94;1814158;79;21092;-76
2022/09/18 10:34:44;;;;;;;1.82;0.50;;;;;;;25.09;39.73;99812.74;1813853;79;21472;-76
2022/09/18 10:37:29;;;;;;;1.52;0.40;;;;;;;25.09;39.74;99807.98;1814506;78;21066;-76
2022/09/18 10:40:00;;;;;;;0.95;0.47;;;;;;;25.10;39.70;99819.34;1781352;79;21564;-75
2022/09/18 10:42:33;;;;;;;2.05;0.50;;;;;;;25.10;39.63;99816.56;1803004;79;21019;-76
2022/09/18 10:45:04;;;;;;;1.17;0.40;;;;;;;25.11;39.59;99820.95;1793567;78;21072;-76
2022/09/18 10:47:32;;;;;;;2.40;0.50;;;;;;;25.10;39.58;99824.91;1770068;80;21258;-76
2022/09/18 10:50:05;;;;;;;0.75;0.40;;;;;;;25.11;39.56;99836.27;1772146;79;21076;-76
2022/09/18 10:52:41;;;;;;;2.90;0.40;;;;;;;25.11;39.59;99831.28;1774339;79;21069;-75
2022/09/18 10:55:15;;;;;;;1.77;0.50;;;;;;;25.12;39.54;99842.64;1776352;80;21077;-75
2022/09/18 10:57:55;;;;;;;2.17;0.40;;;;;;;25.12;39.51;99828.11;1776082;79;21048;-75
2022/09/18 11:00:32;;;;;;;0.88;0.40;;;;;;;25.12;39.45;99832.89;1776696;79;21152;-75
2022/09/18 11:03:09;;;;;;;1.42;0.55;;;;;;;25.12;39.42;99830.11;1776462;79;21547;-75
2022/09/18 11:05:36;;;;;;;0.40;0.28;;;;;;;25.13;39.38;99833.09;1775991;79;21044;-75
2022/09/18 11:08:13;;;;;;;0.72;0.30;;;;;;;25.13;39.36;99826.94;1776202;79;21529;-75
2022/09/18 11:10:39;;;;;;;3.75;0.42;;;;;;;25.13;39.32;99841.44;1776341;79;21064;-75
2022/09/18 11:13:05;;;;;;;0.88;0.40;;;;;;;25.12;39.29;99832.28;1776536;79;21177;-75
2022/09/18 11:15:33;;;;;;;1.35;0.40;;;;;;;25.12;39.27;99840.63;1792288;78;21475;-75
2022/09/18 11:18:05;;;;;;;0.85;0.47;;;;;;;25.13;39.18;99844.22;1765918;80;21053;-75
2022/09/18 11:20:37;;;;;;;0.90;0.47;;;;;;;25.13;39.10;99845.61;1776283;79;21664;-75
2022/09/18 11:23:33;;;;;;;0.33;0.25;;;;;;;25.13;39.14;99855.36;1776890;79;21056;-75
2022/09/18 11:26:13;;;;;;;0.98;0.45;;;;;;;25.13;39.10;99828.91;1771759;79;21027;-76
2022/09/18 11:28:39;;;;;;;2.67;0.40;;;;;;;25.13;39.11;99854.77;1769941;80;21036;-76
2022/09/18 11:31:14;;;;;;;2.58;0.50;;;;;;;25.13;39.08;99853.38;1771267;79;21039;-76
2022/09/18 11:33:48;;;;;;;1.87;0.37;;;;;;;25.14;39.07;99855.58;1771526;80;21012;-76
2022/09/18 11:36:17;;;;;;;2.62;0.50;;;;;;;25.14;39.05;99866.72;1772907;79;21023;-76
2022/09/18 11:38:51;;;;;;;3.03;0.70;;;;;;;25.12;39.04;99864.29;1777047;80;21415;-76
2022/09/18 11:41:28;;;;;;;1.02;0.40;;;;;;;25.13;39.00;99864.52;1781721;80;21474;-76
2022/09/18 11:44:05;;;;;;;0.68;0.30;;;;;;;25.13;38.96;99868.69;1781667;79;20937;-76
2022/09/18 11:47:16;;;;;;;1.77;0.40;;;;;;;25.14;38.94;99865.33;1766609;79;21510;-76
2022/09/18 11:50:08;;;;;;;0.70;0.30;;;;;;;25.14;38.89;99863.93;1782162;80;21541;-76
2022/09/18 11:52:46;;;;;;;1.72;0.47;;;;;;;25.12;38.85;99858.73;1782199;80;21171;-76
2022/09/18 11:55:35;;;;;;;0.57;0.30;;;;;;;25.11;38.85;99880.80;1781997;80;21441;-75
2022/09/18 11:58:31;;;;;;;3.27;0.50;;;;;;;25.12;38.82;99864.91;1781390;79;21005;-76